createdAt,value
2023-01-13T00:00:27.688Z,29.17
2023-01-13T00:03:29.827Z,30.63
2023-01-13T00:06:31.936Z,30.02
2023-01-13T00:09:34.115Z,27.73
2023-01-13T00:12:39.681Z,29.27
2023-01-13T00:15:42.265Z,30.35
2023-01-13T00:18:44.888Z,24.33
2023-01-13T00:21:47.182Z,25.33
2023-01-13T00:24:49.508Z,26.83
2023-01-13T00:27:51.930Z,25.07
2023-01-13T00:30:58.531Z,23.70
2023-01-13T00:34:01.180Z,22.30
2023-01-13T00:37:03.428Z,30.52
2023-01-13T00:40:06.175Z,22.83
2023-01-13T00:43:23.997Z,24.60
2023-01-13T00:46:26.254Z,23.27
2023-01-13T00:49:28.459Z,24.63
2023-01-13T00:52:32.193Z,22.33
2023-01-13T00:55:34.436Z,20.42
2023-01-13T00:58:36.831Z,20.90
2023-01-13T01:01:39.953Z,20.35
2023-01-13T01:04:42.334Z,22.65
2023-01-13T01:07:44.465Z,20.33
2023-01-13T01:10:46.627Z,22.98
2023-01-13T01:13:49.358Z,22.30
2023-01-13T01:16:51.562Z,22.50
2023-01-13T01:19:53.772Z,19.07
2023-01-13T01:22:55.945Z,18.90
2023-01-13T01:26:02.045Z,19.25
2023-01-13T01:29:04.240Z,21.00
2023-01-13T01:32:06.483Z,17.52
2023-01-13T01:35:08.874Z,21.70
2023-01-13T01:38:11.246Z,18.48
2023-01-13T01:41:19.050Z,20.67
2023-01-13T01:44:42.846Z,19.75
2023-01-13T01:47:47.871Z,17.80
2023-01-13T01:50:50.023Z,18.50
2023-01-13T01:53:53.953Z,22.92
2023-01-13T01:56:56.268Z,18.50
2023-01-13T02:00:02.670Z,21.37
2023-01-13T02:03:15.761Z,20.67
2023-01-13T02:06:18.612Z,18.38
2023-01-13T02:09:20.794Z,21.35
2023-01-13T02:12:29.977Z,23.92
2023-01-13T02:15:47.985Z,20.45
2023-01-13T02:19:23.678Z,20.27
2023-01-13T02:22:37.973Z,18.23
2023-01-13T02:26:03.561Z,19.30
2023-01-13T02:29:30.931Z,19.17
2023-01-13T02:32:41.567Z,19.63
2023-01-13T02:35:59.619Z,17.73
2023-01-13T02:39:12.080Z,19.42
2023-01-13T02:42:51.729Z,18.88
2023-01-13T02:45:59.486Z,18.30
2023-01-13T02:49:05.476Z,18.02
2023-01-13T02:52:40.031Z,18.45
2023-01-13T02:55:48.989Z,21.30
2023-01-13T02:58:51.567Z,23.23
2023-01-13T03:01:56.174Z,23.00
2023-01-13T03:05:00.247Z,23.17
2023-01-13T03:08:21.470Z,22.95
2023-01-13T03:11:27.202Z,23.60
2023-01-13T03:14:43.008Z,21.73
2023-01-13T03:17:50.469Z,22.30
2023-01-13T03:21:21.810Z,21.88
2023-01-13T03:24:30.612Z,24.48
2023-01-13T03:27:42.071Z,20.40
2023-01-13T03:30:55.105Z,22.63
2023-01-13T03:34:19.673Z,25.50
2023-01-13T03:37:27.533Z,23.57
2023-01-13T03:40:33.907Z,19.67
2023-01-13T03:44:03.331Z,20.35
2023-01-13T03:47:33.751Z,23.60
2023-01-13T03:50:40.767Z,19.83
2023-01-13T03:53:50.278Z,21.02
2023-01-13T03:57:04.176Z,20.80
2023-01-13T04:00:09.556Z,19.03
2023-01-13T04:03:48.060Z,17.77
2023-01-13T04:07:20.966Z,17.98
2023-01-13T04:10:30.283Z,20.57
2023-01-13T04:13:35.859Z,16.45
2023-01-13T04:16:38.454Z,16.27
2023-01-13T04:19:40.836Z,16.30
2023-01-13T04:22:43.847Z,16.20
2023-01-13T04:25:46.854Z,19.83
2023-01-13T04:28:49.289Z,18.63
2023-01-13T04:31:51.479Z,16.63
2023-01-13T04:34:54.271Z,18.83
2023-01-13T04:37:56.708Z,16.60
2023-01-13T04:40:58.974Z,15.70
2023-01-13T04:44:01.177Z,14.40
2023-01-13T04:47:04.391Z,13.07
2023-01-13T04:50:06.891Z,15.80
2023-01-13T04:53:09.197Z,15.45
2023-01-13T04:56:11.388Z,15.90
2023-01-13T04:59:14.221Z,14.80
2023-01-13T05:02:19.928Z,15.67
2023-01-13T05:05:22.268Z,17.05
2023-01-13T05:08:24.485Z,17.17
2023-01-13T05:11:45.317Z,14.77
2023-01-13T05:15:05.911Z,18.30
2023-01-13T05:18:08.275Z,16.98
2023-01-13T05:21:30.444Z,15.45
2023-01-13T05:24:51.249Z,18.50
2023-01-13T05:27:58.824Z,15.68
2023-01-13T05:31:01.364Z,15.48
2023-01-13T05:34:03.819Z,18.97
2023-01-13T05:37:07.939Z,16.83
2023-01-13T05:40:30.279Z,18.50
2023-01-13T05:43:33.349Z,16.03
2023-01-13T05:46:35.596Z,16.52
2023-01-13T05:49:37.928Z,16.08
2023-01-13T05:52:40.344Z,17.63
2023-01-13T05:55:43.592Z,17.95
2023-01-13T05:58:45.788Z,20.10
2023-01-13T06:01:48.110Z,18.58
2023-01-13T06:04:50.350Z,18.73
2023-01-13T06:07:56.918Z,19.50
2023-01-13T06:10:59.248Z,18.45
2023-01-13T06:14:01.458Z,17.43
2023-01-13T06:17:03.727Z,16.50
2023-01-13T06:20:08.291Z,20.92
2023-01-13T06:23:11.897Z,18.48
2023-01-13T06:26:21.279Z,18.50
2023-01-13T06:29:24.073Z,19.63
2023-01-13T06:32:30.141Z,17.88
2023-01-13T06:35:34.490Z,20.47
2023-01-13T06:38:40.261Z,18.95
2023-01-13T06:42:16.644Z,19.13
2023-01-13T06:45:21.583Z,16.77
2023-01-13T06:48:27.517Z,17.38
2023-01-13T06:51:29.719Z,17.40
2023-01-13T06:54:32.273Z,19.52
2023-01-13T06:57:34.632Z,16.98
2023-01-13T07:00:39.850Z,15.90
2023-01-13T07:03:42.327Z,16.75
2023-01-13T07:06:45.263Z,18.53
2023-01-13T07:09:49.180Z,15.73
2023-01-13T07:13:25.746Z,18.33
2023-01-13T07:16:32.724Z,14.93
2023-01-13T07:19:35.252Z,15.60
2023-01-13T07:22:37.436Z,13.68
2023-01-13T07:25:39.619Z,17.15
2023-01-13T07:28:41.995Z,15.15
2023-01-13T07:31:44.556Z,13.40
2023-01-13T07:34:46.780Z,14.48
2023-01-13T07:37:49.031Z,12.47
2023-01-13T07:40:51.456Z,14.73
2023-01-13T07:43:54.142Z,13.00
2023-01-13T07:47:00.341Z,17.03
2023-01-13T07:50:02.664Z,14.43
2023-01-13T07:53:05.109Z,13.05
2023-01-13T07:56:08.196Z,13.82
2023-01-13T07:59:10.957Z,17.23
2023-01-13T08:02:20.720Z,16.15
2023-01-13T08:05:32.810Z,17.58
2023-01-13T08:08:40.578Z,15.17
2023-01-13T08:12:17.929Z,17.10
2023-01-13T08:15:21.690Z,17.52
2023-01-13T08:18:23.948Z,15.37
2023-01-13T08:21:28.426Z,14.23
2023-01-13T08:24:30.655Z,14.60
2023-01-13T08:27:34.892Z,15.35
2023-01-13T08:30:37.141Z,17.63
2023-01-13T08:33:40.258Z,15.68
2023-01-13T08:36:43.569Z,14.20
2023-01-13T08:39:48.487Z,13.13
2023-01-13T08:42:53.025Z,12.35
2023-01-13T08:46:01.319Z,12.95
2023-01-13T08:49:04.218Z,12.77
2023-01-13T08:52:13.184Z,12.80
2023-01-13T08:55:17.219Z,11.98
2023-01-13T09:02:33.779Z,10.68
2023-01-13T09:05:39.353Z,13.82
2023-01-13T09:08:46.651Z,14.40
2023-01-13T09:12:09.509Z,10.77
2023-01-13T09:15:12.277Z,13.48
2023-01-13T09:18:14.700Z,11.65
2023-01-13T09:21:20.026Z,12.90
2023-01-13T09:24:23.972Z,10.40
2023-01-13T09:27:27.209Z,10.95
2023-01-13T09:30:32.425Z,12.43
2023-01-13T09:33:54.593Z,13.05
2023-01-13T09:36:56.877Z,10.15
2023-01-13T09:40:20.116Z,12.02
2023-01-13T09:44:07.523Z,11.53
2023-01-13T09:47:20.818Z,10.48
2023-01-13T09:50:41.904Z,10.82
2023-01-13T09:54:02.738Z,11.57
2023-01-13T09:57:25.853Z,14.13
2023-01-13T10:00:35.525Z,13.77
2023-01-13T10:03:38.196Z,12.18
2023-01-13T10:06:43.123Z,13.70
2023-01-13T10:09:55.160Z,13.15
2023-01-13T10:13:15.605Z,11.95
2023-01-13T10:16:33.915Z,13.73
2023-01-13T10:19:49.760Z,17.98
2023-01-13T10:23:29.588Z,13.98
2023-01-13T10:26:40.179Z,12.67
2023-01-13T10:29:42.388Z,11.80
2023-01-13T10:32:49.435Z,12.05
2023-01-13T10:35:51.761Z,12.52
2023-01-13T10:39:07.155Z,11.98
2023-01-13T10:42:17.320Z,13.70
2023-01-13T10:45:24.854Z,14.40
2023-01-13T10:49:25.529Z,13.70
2023-01-13T10:52:35.406Z,13.48
2023-01-13T10:55:38.384Z,14.80
2023-01-13T10:58:50.135Z,16.20
2023-01-13T11:02:36.430Z,13.82
2023-01-13T11:05:41.417Z,15.27
2023-01-13T11:08:55.675Z,17.50
2023-01-13T11:12:05.837Z,17.15
2023-01-13T11:15:12.047Z,17.58
2023-01-13T11:18:25.228Z,19.55
2023-01-13T11:21:35.867Z,17.83
2023-01-13T11:24:41.061Z,17.90
2023-01-13T11:27:47.147Z,17.05
2023-01-13T11:30:56.849Z,18.20
2023-01-13T11:34:25.375Z,15.30
2023-01-13T11:37:28.833Z,14.82
2023-01-13T11:40:41.707Z,17.38
2023-01-13T11:44:10.029Z,14.18
2023-01-13T11:47:12.604Z,17.67
2023-01-13T11:51:10.595Z,17.05
2023-01-13T11:54:47.909Z,18.47
2023-01-13T11:58:14.497Z,19.17
2023-01-13T12:01:31.299Z,16.60
2023-01-13T12:05:17.450Z,18.20
2023-01-13T12:08:47.650Z,19.67
2023-01-13T12:12:11.612Z,15.07
2023-01-13T12:15:21.482Z,19.90
2023-01-13T12:18:33.353Z,18.45
2023-01-13T12:22:11.869Z,20.33
2023-01-13T12:25:34.491Z,17.77
2023-01-13T12:28:56.648Z,16.67
2023-01-13T12:32:00.787Z,18.42
2023-01-13T12:35:31.553Z,18.92
2023-01-13T12:38:43.530Z,21.87
2023-01-13T12:42:12.425Z,19.60
2023-01-13T12:45:14.601Z,21.05
2023-01-13T12:48:45.859Z,20.35
2023-01-13T12:51:55.674Z,19.58
2023-01-13T12:55:04.258Z,18.95
2023-01-13T12:58:07.134Z,19.80
2023-01-13T13:01:14.473Z,18.93
2023-01-13T13:04:21.611Z,21.67
2023-01-13T13:07:31.605Z,23.48
2023-01-13T13:10:39.313Z,22.27
2023-01-13T13:13:47.226Z,20.15
2023-01-13T13:16:50.335Z,27.48
2023-01-13T13:19:52.727Z,29.40
2023-01-13T13:22:54.898Z,24.80
2023-01-13T13:26:03.163Z,26.38
2023-01-13T13:29:27.447Z,19.90
2023-01-13T13:33:08.630Z,22.27
2023-01-13T13:36:54.095Z,19.27
2023-01-13T13:40:14.926Z,17.70
2023-01-13T13:43:38.650Z,21.73
2023-01-13T13:46:56.548Z,23.50
2023-01-13T13:50:13.623Z,21.50
2023-01-13T13:53:18.892Z,23.52
2023-01-13T13:56:24.892Z,28.13
2023-01-13T13:59:30.731Z,23.98
2023-01-13T14:02:36.727Z,23.35
2023-01-13T14:05:38.922Z,17.60
2023-01-13T14:08:46.126Z,21.38
2023-01-13T14:11:57.921Z,22.95
2023-01-13T14:15:00.317Z,20.93
2023-01-13T14:18:05.399Z,24.38
2023-01-13T14:21:29.305Z,21.58
2023-01-13T14:24:32.243Z,21.00
2023-01-13T14:27:35.397Z,17.35
2023-01-13T14:30:37.714Z,18.98
2023-01-13T14:33:43.638Z,17.45
2023-01-13T14:36:50.917Z,22.13
2023-01-13T14:39:53.205Z,20.30
2023-01-13T14:43:03.322Z,21.45
2023-01-13T14:46:05.554Z,20.20
2023-01-13T14:49:25.006Z,26.27
2023-01-13T14:52:38.399Z,22.95
2023-01-13T14:55:42.120Z,29.05
2023-01-13T14:58:44.351Z,28.23
2023-01-13T15:01:47.683Z,25.35
2023-01-13T15:04:53.918Z,23.05
2023-01-13T15:08:11.541Z,28.33
2023-01-13T15:11:27.567Z,24.85
2023-01-13T15:14:34.483Z,24.58
2023-01-13T15:17:36.990Z,26.73
2023-01-13T15:20:40.196Z,23.27
2023-01-13T15:23:42.740Z,31.33
2023-01-13T15:26:44.963Z,27.05
2023-01-13T15:29:47.988Z,29.40
2023-01-13T15:32:50.323Z,30.25
2023-01-13T15:35:53.303Z,29.52
2023-01-13T15:38:56.044Z,22.93
2023-01-13T15:42:16.875Z,28.90
2023-01-13T15:45:37.691Z,27.08
2023-01-13T15:48:39.859Z,30.37
2023-01-13T15:51:42.706Z,25.25
2023-01-13T15:54:44.908Z,25.10
2023-01-13T15:57:48.940Z,31.98
2023-01-13T16:00:51.132Z,26.77
2023-01-13T16:03:53.646Z,30.25
2023-01-13T16:06:56.569Z,28.70
2023-01-13T16:10:01.807Z,27.80
2023-01-13T16:13:04.081Z,26.73
2023-01-13T16:16:22.035Z,24.95
2023-01-13T16:19:24.233Z,22.33
2023-01-13T16:22:26.445Z,20.40
2023-01-13T16:25:28.683Z,21.40
2023-01-13T16:28:30.850Z,24.88
2023-01-13T16:31:34.369Z,25.30
2023-01-13T16:34:36.634Z,21.58
2023-01-13T16:37:38.900Z,21.30
2023-01-13T16:40:41.084Z,20.40
2023-01-13T16:43:43.701Z,23.08
2023-01-13T16:46:46.189Z,19.75
2023-01-13T16:49:48.402Z,23.73
2023-01-13T16:52:50.643Z,18.95
2023-01-13T16:55:52.881Z,22.92
2023-01-13T16:58:57.707Z,19.48
2023-01-13T17:02:01.928Z,19.20
2023-01-13T17:05:04.760Z,22.27
2023-01-13T17:08:07.161Z,21.33
2023-01-13T17:11:10.332Z,17.10
2023-01-13T17:14:18.609Z,20.35
2023-01-13T17:17:24.338Z,18.50
2023-01-13T17:20:26.598Z,20.93
2023-01-13T17:23:29.802Z,19.27
2023-01-13T17:26:37.195Z,26.10
2023-01-13T17:29:39.664Z,18.17
2023-01-13T17:32:42.159Z,21.33
2023-01-13T17:35:46.027Z,18.33
2023-01-13T17:38:48.268Z,19.38
2023-01-13T17:41:51.351Z,19.73
2023-01-13T17:44:54.420Z,20.90
2023-01-13T17:48:00.041Z,17.45
2023-01-13T17:51:03.525Z,21.23
2023-01-13T17:54:05.865Z,21.00
2023-01-13T17:57:08.109Z,23.17
2023-01-13T18:00:12.470Z,20.55
2023-01-13T18:03:15.897Z,20.98
2023-01-13T18:06:21.467Z,23.27
2023-01-13T18:09:26.798Z,20.02
2023-01-13T18:12:29.067Z,19.70
2023-01-13T18:15:31.479Z,19.33
2023-01-13T18:18:35.234Z,18.85
2023-01-13T18:21:56.178Z,17.80
2023-01-13T18:25:16.788Z,21.52
2023-01-13T18:28:19.083Z,21.30
2023-01-13T18:31:21.362Z,18.70
2023-01-13T18:34:23.627Z,20.77
2023-01-13T18:37:26.626Z,20.35
2023-01-13T18:40:28.831Z,21.00
2023-01-13T18:43:33.280Z,19.33
2023-01-13T18:46:35.729Z,21.23
2023-01-13T18:49:37.967Z,21.13
2023-01-13T18:52:41.321Z,23.93
2023-01-13T18:55:43.544Z,22.48
2023-01-13T18:58:51.973Z,22.88
2023-01-13T19:01:54.330Z,21.77
2023-01-13T19:04:57.217Z,23.83
2023-01-13T19:07:59.740Z,28.35
2023-01-13T19:11:05.938Z,24.20
2023-01-13T19:14:08.798Z,24.40
2023-01-13T19:17:13.941Z,21.27
2023-01-13T19:20:16.553Z,24.85
2023-01-13T19:23:19.476Z,25.70
2023-01-13T19:26:21.850Z,22.92
2023-01-13T19:29:24.218Z,22.20
2023-01-13T19:32:27.508Z,23.55
2023-01-13T19:35:29.775Z,25.58
2023-01-13T19:38:32.226Z,26.33
2023-01-13T19:41:53.056Z,23.65
2023-01-13T19:45:14.138Z,25.67
2023-01-13T19:48:16.737Z,28.38
2023-01-13T19:51:19.033Z,26.75
2023-01-13T19:54:21.349Z,30.93
2023-01-13T19:57:27.496Z,25.38
2023-01-13T20:00:29.713Z,28.85
2023-01-13T20:03:35.859Z,27.98
2023-01-13T20:06:38.135Z,31.00
2023-01-13T20:09:43.365Z,27.17
2023-01-13T20:12:45.657Z,29.23
2023-01-13T20:15:48.044Z,26.40
2023-01-13T20:18:51.401Z,28.25
2023-01-13T20:21:53.603Z,23.60
2023-01-13T20:24:55.895Z,24.23
2023-01-13T20:27:58.763Z,23.00
2023-01-13T20:31:01.049Z,23.00
2023-01-13T20:34:03.311Z,28.10
2023-01-13T20:37:05.699Z,27.00
2023-01-13T20:40:09.606Z,24.85
2023-01-13T20:43:11.871Z,27.25
2023-01-13T20:46:14.079Z,23.90
2023-01-13T20:49:16.403Z,24.40
2023-01-13T20:52:18.680Z,28.05
2023-01-13T20:55:21.219Z,25.27
2023-01-13T20:58:23.403Z,23.83
2023-01-13T21:01:26.597Z,23.02
2023-01-13T21:04:29.046Z,27.02
2023-01-13T21:07:31.289Z,24.42
2023-01-13T21:10:33.460Z,25.40
2023-01-13T21:13:54.163Z,25.92
2023-01-13T21:16:56.388Z,22.43
2023-01-13T21:19:59.160Z,27.33
2023-01-13T21:23:02.401Z,24.42
2023-01-13T21:26:05.242Z,24.13
2023-01-13T21:29:07.603Z,21.73
2023-01-13T21:32:12.910Z,25.88
2023-01-13T21:35:15.284Z,28.15
2023-01-13T21:38:17.506Z,26.08
2023-01-13T21:41:40.228Z,26.60
2023-01-13T21:45:00.957Z,27.98
2023-01-13T21:48:03.304Z,24.77
2023-01-13T21:51:05.799Z,25.58
2023-01-13T21:54:07.997Z,24.25
2023-01-13T21:57:10.314Z,26.70
2023-01-13T22:00:13.117Z,24.63
2023-01-13T22:03:15.360Z,24.55
2023-01-13T22:06:17.626Z,24.33
2023-01-13T22:09:19.871Z,24.35
2023-01-13T22:12:24.427Z,24.00
2023-01-13T22:15:29.132Z,21.25
2023-01-13T22:18:31.274Z,23.57
2023-01-13T22:21:33.969Z,26.95
2023-01-13T22:24:39.025Z,27.13
2023-01-13T22:27:44.371Z,26.23
2023-01-13T22:30:49.739Z,31.85
2023-01-13T22:33:55.568Z,28.55
2023-01-13T22:36:58.143Z,27.42
2023-01-13T22:40:00.407Z,25.73
2023-01-13T22:43:02.722Z,23.83
2023-01-13T22:46:10.574Z,26.00
2023-01-13T22:49:13.689Z,26.80
2023-01-13T22:52:17.215Z,25.08
2023-01-13T22:55:19.442Z,31.48
2023-01-13T22:58:21.783Z,27.30
2023-01-13T23:01:25.996Z,25.38
2023-01-13T23:04:29.203Z,26.05
2023-01-13T23:07:31.455Z,26.25
2023-01-13T23:10:33.912Z,24.88
2023-01-13T23:13:38.108Z,26.27
2023-01-13T23:16:40.861Z,26.70
2023-01-13T23:19:43.272Z,26.20
2023-01-13T23:22:45.973Z,28.35
2023-01-13T23:25:53.639Z,28.13
2023-01-13T23:29:02.999Z,28.50
2023-01-13T23:32:05.557Z,28.42
2023-01-13T23:35:09.058Z,30.63
2023-01-13T23:38:11.373Z,28.08
2023-01-13T23:41:16.160Z,30.65
2023-01-13T23:44:18.355Z,28.58
2023-01-13T23:47:20.543Z,30.48
2023-01-13T23:50:22.790Z,29.43
2023-01-13T23:53:31.030Z,31.02
2023-01-13T23:56:34.811Z,27.30
2023-01-13T23:59:37.011Z,28.63
